createdAt,value
2019-02-27T00:01:16.937Z,24.73
2019-02-27T00:03:47.050Z,24.17
2019-02-27T00:06:16.443Z,23.67
2019-02-27T00:08:45.751Z,23.60
2019-02-27T00:11:15.070Z,25.63
2019-02-27T00:13:44.388Z,25.37
2019-02-27T00:16:13.706Z,26.07
2019-02-27T00:18:43.043Z,25.43
2019-02-27T00:21:12.335Z,24.37
2019-02-27T00:23:41.694Z,25.40
2019-02-27T00:26:10.991Z,24.93
2019-02-27T00:28:41.462Z,23.77
2019-02-27T00:31:11.470Z,24.03
2019-02-27T00:33:41.443Z,25.93
2019-02-27T00:36:12.382Z,24.53
2019-02-27T00:38:41.758Z,25.80
2019-02-27T00:41:12.856Z,24.53
2019-02-27T00:43:42.138Z,25.63
2019-02-27T00:46:13.328Z,24.43
2019-02-27T00:48:42.442Z,23.73
2019-02-27T00:51:12.149Z,28.20
2019-02-27T00:53:42.114Z,29.63
2019-02-27T00:56:12.923Z,29.70
2019-02-27T00:58:42.298Z,31.23
2019-02-27T01:01:12.795Z,31.97
2019-02-27T01:03:42.698Z,28.77
2019-02-27T01:06:14.626Z,30.13
2019-02-27T01:08:43.218Z,29.30
2019-02-27T01:11:12.518Z,31.30
2019-02-27T01:13:41.841Z,29.57
2019-02-27T01:16:11.204Z,28.20
2019-02-27T01:18:40.558Z,28.97
2019-02-27T01:21:09.871Z,29.10
2019-02-27T01:23:41.652Z,26.57
2019-02-27T01:26:10.174Z,27.30
2019-02-27T01:28:44.651Z,23.60
2019-02-27T01:31:10.510Z,26.67
2019-02-27T01:33:39.806Z,27.93
2019-02-27T01:36:09.121Z,29.97
2019-02-27T01:38:38.602Z,25.80
2019-02-27T01:41:08.031Z,26.73
2019-02-27T01:43:40.086Z,27.30
2019-02-27T01:46:08.327Z,25.13
2019-02-27T01:48:42.695Z,24.17
2019-02-27T01:51:08.630Z,25.30
2019-02-27T01:53:40.301Z,31.50
2019-02-27T01:56:08.939Z,35.30
2019-02-27T01:58:43.460Z,33.90
2019-02-27T02:01:10.118Z,29.90
2019-02-27T02:03:39.423Z,28.10
2019-02-27T02:06:08.736Z,31.20
2019-02-27T02:08:38.040Z,35.13
2019-02-27T02:11:07.338Z,38.80
2019-02-27T02:13:39.714Z,36.57
2019-02-27T02:16:14.955Z,32.43
2019-02-27T02:19:05.393Z,33.90
2019-02-27T02:21:49.568Z,30.00
2019-02-27T02:24:44.583Z,27.83
2019-02-27T02:27:16.963Z,28.63
2019-02-27T02:29:53.134Z,29.67
2019-02-27T02:32:42.562Z,33.90
2019-02-27T02:35:23.873Z,29.83
2019-02-27T02:37:56.308Z,26.50
2019-02-27T02:40:31.267Z,24.87
2019-02-27T02:43:41.503Z,26.30
2019-02-27T02:46:22.308Z,26.10
2019-02-27T02:49:13.007Z,23.87
2019-02-27T02:51:54.211Z,26.10
2019-02-27T02:54:37.533Z,24.73
2019-02-27T02:57:21.175Z,22.60
2019-02-27T03:00:02.483Z,23.53
2019-02-27T03:02:42.469Z,25.07
2019-02-27T03:05:29.696Z,22.10
2019-02-27T03:08:11.017Z,23.67
2019-02-27T03:10:43.821Z,23.93
2019-02-27T03:13:26.349Z,23.27
2019-02-27T03:16:04.262Z,24.97
2019-02-27T03:18:49.335Z,26.30
2019-02-27T03:21:27.354Z,24.30
2019-02-27T03:24:19.554Z,23.73
2019-02-27T03:27:08.575Z,24.33
2019-02-27T03:29:59.084Z,24.83
2019-02-27T03:33:00.248Z,25.50
2019-02-27T03:35:44.823Z,26.33
2019-02-27T03:38:24.055Z,26.33
2019-02-27T03:41:15.543Z,25.20
2019-02-27T03:43:53.769Z,27.07
2019-02-27T03:46:47.299Z,25.50
2019-02-27T03:49:40.681Z,24.63
2019-02-27T03:52:40.243Z,25.33
2019-02-27T03:55:34.487Z,25.20
2019-02-27T03:58:21.322Z,25.10
2019-02-27T04:01:30.024Z,26.20
2019-02-27T04:04:05.492Z,23.83
2019-02-27T04:06:56.311Z,27.37
2019-02-27T04:09:26.650Z,30.93
2019-02-27T04:11:56.016Z,27.67
2019-02-27T04:14:29.716Z,26.30
2019-02-27T04:17:05.111Z,26.53
2019-02-27T04:19:30.298Z,27.23
2019-02-27T04:22:01.155Z,26.60
2019-02-27T04:24:30.636Z,24.23
2019-02-27T04:26:59.931Z,25.00
2019-02-27T04:29:29.248Z,24.53
2019-02-27T04:31:58.553Z,24.37
2019-02-27T04:34:27.862Z,23.13
2019-02-27T04:36:57.165Z,24.17
2019-02-27T04:39:26.476Z,22.73
2019-02-27T04:41:55.772Z,23.70
2019-02-27T04:44:25.082Z,25.47
2019-02-27T04:46:55.098Z,24.50
2019-02-27T04:49:24.930Z,23.40
2019-02-27T04:51:54.278Z,26.17
2019-02-27T04:54:23.593Z,25.07
2019-02-27T04:56:55.051Z,24.87
2019-02-27T04:59:23.901Z,27.73
2019-02-27T05:01:53.256Z,25.43
2019-02-27T05:04:22.627Z,22.90
2019-02-27T05:06:52.008Z,24.67
2019-02-27T05:09:21.326Z,23.90
2019-02-27T05:11:50.618Z,22.50
2019-02-27T05:14:19.957Z,22.67
2019-02-27T05:16:49.250Z,26.83
2019-02-27T05:19:18.603Z,23.17
2019-02-27T05:21:52.198Z,23.50
2019-02-27T05:24:19.042Z,23.03
2019-02-27T05:26:48.351Z,23.57
2019-02-27T05:29:17.646Z,24.20
2019-02-27T05:31:50.240Z,24.47
2019-02-27T05:34:18.956Z,24.53
2019-02-27T05:36:48.298Z,23.87
2019-02-27T05:39:18.008Z,23.73
2019-02-27T05:41:47.477Z,24.00
2019-02-27T05:44:21.361Z,24.53
2019-02-27T05:46:47.775Z,25.87
2019-02-27T05:49:17.079Z,23.50
2019-02-27T05:51:46.420Z,24.50
2019-02-27T05:54:15.735Z,26.90
2019-02-27T05:56:47.135Z,26.60
2019-02-27T05:59:16.081Z,28.37
2019-02-27T06:01:45.396Z,30.50
2019-02-27T06:04:14.694Z,31.67
2019-02-27T06:06:45.687Z,29.40
2019-02-27T06:09:15.003Z,30.93
2019-02-27T06:11:44.321Z,31.57
2019-02-27T06:14:13.615Z,33.17
2019-02-27T06:16:42.944Z,34.63
2019-02-27T06:19:12.246Z,33.57
2019-02-27T06:21:41.598Z,32.43
2019-02-27T06:24:12.464Z,33.47
2019-02-27T06:26:42.095Z,32.47
2019-02-27T06:29:11.402Z,31.87
2019-02-27T06:31:40.715Z,32.97
2019-02-27T06:34:10.013Z,32.90
2019-02-27T06:36:42.800Z,33.30
2019-02-27T06:39:10.367Z,34.33
2019-02-27T06:41:39.990Z,35.07
2019-02-27T06:44:09.454Z,33.40
2019-02-27T06:46:38.769Z,29.67
2019-02-27T06:49:08.097Z,31.10
2019-02-27T06:51:37.451Z,29.00
2019-02-27T06:54:06.814Z,30.33
2019-02-27T06:56:36.307Z,28.40
2019-02-27T06:59:05.643Z,29.07
2019-02-27T07:01:34.946Z,26.43
2019-02-27T07:04:04.766Z,28.03
2019-02-27T07:06:36.812Z,29.10
2019-02-27T07:09:11.414Z,27.20
2019-02-27T07:11:38.223Z,27.20
2019-02-27T07:14:07.555Z,27.07
2019-02-27T07:16:36.858Z,24.17
2019-02-27T07:19:06.292Z,22.60
2019-02-27T07:21:35.591Z,22.47
2019-02-27T07:24:04.926Z,23.10
2019-02-27T07:26:34.317Z,20.47
2019-02-27T07:29:03.607Z,21.60
2019-02-27T07:31:32.939Z,20.70
2019-02-27T07:34:02.251Z,21.57
2019-02-27T07:36:31.563Z,22.30
2019-02-27T07:39:00.892Z,22.63
2019-02-27T07:41:31.819Z,20.93
2019-02-27T07:44:01.211Z,21.67
2019-02-27T07:46:30.560Z,22.47
2019-02-27T07:49:01.492Z,22.27
2019-02-27T07:51:31.012Z,23.93
2019-02-27T07:54:00.311Z,23.00
2019-02-27T07:56:29.684Z,21.63
2019-02-27T07:58:58.974Z,22.67
2019-02-27T08:01:28.282Z,23.50
2019-02-27T08:03:57.626Z,22.97
2019-02-27T08:06:26.999Z,22.07
2019-02-27T08:08:57.180Z,22.90
2019-02-27T08:11:27.220Z,22.70
2019-02-27T08:13:56.640Z,22.80
2019-02-27T08:16:25.966Z,23.47
2019-02-27T08:18:55.322Z,22.47
2019-02-27T08:21:24.707Z,23.67
2019-02-27T08:23:55.144Z,23.80
2019-02-27T08:26:24.752Z,21.93
2019-02-27T08:28:54.091Z,23.47
2019-02-27T08:31:27.897Z,24.57
2019-02-27T08:33:54.469Z,21.40
2019-02-27T08:36:23.783Z,21.60
2019-02-27T08:38:53.129Z,21.77
2019-02-27T08:41:22.443Z,21.73
2019-02-27T08:43:51.806Z,22.47
2019-02-27T08:46:21.199Z,22.67
2019-02-27T08:48:50.734Z,20.63
2019-02-27T08:51:21.123Z,21.67
2019-02-27T08:53:50.535Z,21.93
2019-02-27T08:56:19.901Z,21.53
2019-02-27T08:58:49.375Z,21.67
2019-02-27T09:01:19.045Z,21.07
2019-02-27T09:03:49.791Z,20.83
2019-02-27T09:06:19.122Z,21.40
2019-02-27T09:08:48.463Z,22.27
2019-02-27T09:11:17.817Z,22.77
2019-02-27T09:13:47.164Z,23.07
2019-02-27T09:16:16.523Z,22.53
2019-02-27T09:18:45.859Z,23.63
2019-02-27T09:21:17.085Z,22.60
2019-02-27T09:23:46.219Z,22.63
2019-02-27T09:26:15.561Z,22.90
2019-02-27T09:28:45.217Z,22.00
2019-02-27T09:31:15.784Z,22.73
2019-02-27T09:33:45.179Z,23.50
2019-02-27T09:36:14.530Z,23.67
2019-02-27T09:38:45.272Z,22.37
2019-02-27T09:41:14.639Z,23.47
2019-02-27T09:43:43.971Z,21.97
2019-02-27T09:46:13.340Z,22.40
2019-02-27T09:48:42.662Z,23.27
2019-02-27T09:51:12.021Z,23.33
2019-02-27T09:53:41.347Z,21.23
2019-02-27T09:56:11.991Z,22.60
2019-02-27T09:58:45.246Z,21.17
2019-02-27T10:01:14.789Z,23.40
2019-02-27T10:03:44.308Z,22.40
2019-02-27T10:06:13.715Z,21.97
2019-02-27T10:08:43.032Z,22.80
2019-02-27T10:11:12.384Z,22.77
2019-02-27T10:13:41.707Z,23.23
2019-02-27T10:16:11.054Z,22.33
2019-02-27T10:18:40.450Z,22.97
2019-02-27T10:21:12.131Z,21.80
2019-02-27T10:23:40.834Z,22.80
2019-02-27T10:26:10.200Z,22.77
2019-02-27T10:28:40.419Z,23.10
2019-02-27T10:31:09.788Z,23.67
2019-02-27T10:33:39.240Z,22.53
2019-02-27T10:36:10.573Z,22.47
2019-02-27T10:38:40.447Z,23.17
2019-02-27T10:41:10.100Z,21.30
2019-02-27T10:43:39.447Z,22.70
2019-02-27T10:46:08.779Z,21.70
2019-02-27T10:48:38.133Z,20.57
2019-02-27T10:51:09.445Z,20.73
2019-02-27T10:53:38.591Z,20.23
2019-02-27T10:56:07.923Z,20.17
2019-02-27T10:58:37.439Z,20.77
2019-02-27T11:01:06.779Z,19.10
2019-02-27T11:03:36.176Z,20.87
2019-02-27T11:06:05.583Z,20.57
2019-02-27T11:08:34.906Z,19.93
2019-02-27T11:11:04.413Z,20.93
2019-02-27T11:13:33.739Z,20.03
2019-02-27T11:16:03.143Z,20.73
2019-02-27T11:18:32.545Z,18.77
2019-02-27T11:21:01.902Z,20.87
2019-02-27T11:23:31.260Z,20.83
2019-02-27T11:26:00.607Z,19.23
2019-02-27T11:28:29.938Z,19.77
2019-02-27T11:30:59.275Z,20.27
2019-02-27T11:33:32.735Z,20.57
2019-02-27T11:35:59.676Z,18.53
2019-02-27T11:38:29.055Z,20.40
2019-02-27T11:40:58.432Z,19.67
2019-02-27T11:43:27.792Z,19.30
2019-02-27T11:45:58.672Z,19.50
2019-02-27T11:48:28.153Z,17.17
2019-02-27T11:50:57.475Z,16.67
2019-02-27T11:53:26.821Z,18.70
2019-02-27T11:55:56.152Z,17.60
2019-02-27T11:58:25.508Z,17.40
2019-02-27T12:00:54.887Z,17.73
2019-02-27T12:03:24.222Z,17.20
2019-02-27T12:05:54.534Z,17.37
2019-02-27T12:08:25.806Z,17.27
2019-02-27T12:10:54.960Z,17.33
2019-02-27T12:13:24.327Z,17.73
2019-02-27T12:15:53.688Z,16.80
2019-02-27T12:18:24.023Z,17.63
2019-02-27T12:20:54.114Z,16.83
2019-02-27T12:23:23.627Z,17.70
2019-02-27T12:25:52.991Z,17.47
2019-02-27T12:28:23.055Z,16.93
2019-02-27T12:30:52.372Z,17.63
2019-02-27T12:33:21.733Z,17.83
2019-02-27T12:35:51.136Z,17.80
2019-02-27T12:38:20.468Z,19.27
2019-02-27T12:40:49.907Z,18.63
2019-02-27T12:43:19.336Z,20.30
2019-02-27T12:45:48.698Z,19.20
2019-02-27T12:48:18.128Z,19.20
2019-02-27T12:50:47.464Z,17.00
2019-02-27T12:53:20.735Z,19.67
2019-02-27T12:55:48.792Z,19.57
2019-02-27T12:58:18.127Z,19.53
2019-02-27T13:00:47.470Z,19.57
2019-02-27T13:03:16.896Z,20.63
2019-02-27T13:05:46.219Z,20.37
2019-02-27T13:08:18.892Z,20.27
2019-02-27T13:10:48.703Z,19.67
2019-02-27T13:13:18.212Z,19.77
2019-02-27T13:15:47.531Z,20.63
2019-02-27T13:18:16.880Z,19.43
2019-02-27T13:20:46.345Z,19.87
2019-02-27T13:23:15.844Z,20.13
2019-02-27T13:25:45.236Z,21.00
2019-02-27T13:28:15.575Z,18.80
2019-02-27T13:30:45.005Z,20.57
2019-02-27T13:33:14.348Z,19.30
2019-02-27T13:35:43.696Z,20.27
2019-02-27T13:38:17.488Z,21.27
2019-02-27T13:40:44.104Z,20.63
2019-02-27T13:43:13.448Z,21.23
2019-02-27T13:45:47.316Z,19.87
2019-02-27T13:48:13.860Z,20.07
2019-02-27T13:50:43.270Z,19.80
2019-02-27T13:53:12.603Z,19.43
2019-02-27T13:55:41.931Z,20.50
2019-02-27T13:58:11.300Z,19.70
2019-02-27T14:00:40.734Z,19.27
2019-02-27T14:03:12.820Z,20.13
2019-02-27T14:05:41.208Z,20.30
2019-02-27T14:08:10.881Z,20.57
2019-02-27T14:10:40.211Z,20.37
2019-02-27T14:13:09.947Z,19.47
2019-02-27T14:15:39.403Z,19.20
2019-02-27T14:18:08.751Z,20.17
2019-02-27T14:20:38.079Z,20.27
2019-02-27T14:23:07.420Z,20.97
2019-02-27T14:25:36.755Z,21.17
2019-02-27T14:28:06.114Z,20.80
2019-02-27T14:30:38.354Z,22.17
2019-02-27T14:33:07.867Z,22.53
2019-02-27T14:35:37.267Z,21.53
2019-02-27T14:38:06.628Z,20.63
2019-02-27T14:40:40.054Z,22.00
2019-02-27T14:43:07.199Z,21.90
2019-02-27T14:45:40.714Z,21.60
2019-02-27T14:48:08.867Z,21.17
2019-02-27T14:50:38.261Z,21.27
2019-02-27T14:53:07.635Z,22.70
2019-02-27T14:55:37.463Z,22.57
2019-02-27T14:58:07.051Z,22.37
2019-02-27T15:00:40.977Z,21.90
2019-02-27T15:03:08.912Z,23.13
2019-02-27T15:05:43.121Z,23.30
2019-02-27T15:08:09.302Z,23.57
2019-02-27T15:10:41.059Z,23.80
2019-02-27T15:13:09.770Z,23.57
2019-02-27T15:15:43.200Z,24.23
2019-02-27T15:18:10.148Z,23.20
2019-02-27T15:20:40.940Z,24.60
2019-02-27T15:23:12.327Z,24.20
2019-02-27T15:25:43.068Z,23.40
2019-02-27T15:28:12.788Z,22.07
2019-02-27T15:30:46.414Z,21.87
2019-02-27T15:33:13.164Z,22.40
2019-02-27T15:35:42.532Z,23.13
2019-02-27T15:38:12.465Z,21.30
2019-02-27T15:40:42.084Z,22.23
2019-02-27T15:43:11.776Z,20.67
2019-02-27T15:45:47.523Z,22.43
2019-02-27T15:48:12.375Z,22.17
2019-02-27T15:50:41.719Z,21.23
2019-02-27T15:53:14.538Z,20.00
2019-02-27T15:55:42.128Z,20.70
2019-02-27T15:58:11.518Z,19.67
2019-02-27T16:00:40.869Z,20.73
2019-02-27T16:03:11.846Z,19.83
2019-02-27T16:05:41.267Z,19.13
2019-02-27T16:08:10.608Z,19.93
2019-02-27T16:10:43.703Z,19.43
2019-02-27T16:13:10.968Z,19.43
2019-02-27T16:15:40.302Z,18.27
2019-02-27T16:18:09.639Z,18.97
2019-02-27T16:20:38.966Z,18.47
2019-02-27T16:23:08.297Z,18.27
2019-02-27T16:25:37.622Z,18.07
2019-02-27T16:28:11.327Z,18.60
2019-02-27T16:30:38.003Z,18.10
2019-02-27T16:33:07.345Z,18.07
2019-02-27T16:35:41.560Z,18.63
2019-02-27T16:38:07.711Z,18.17
2019-02-27T16:40:37.050Z,18.83
2019-02-27T16:43:06.459Z,18.43
2019-02-27T16:45:37.673Z,19.33
2019-02-27T16:48:07.135Z,20.00
2019-02-27T16:50:36.463Z,18.70
2019-02-27T16:53:05.811Z,18.40
2019-02-27T16:55:36.885Z,18.87
2019-02-27T16:58:06.230Z,17.73
2019-02-27T17:00:37.937Z,19.57
2019-02-27T17:03:13.080Z,19.20
2019-02-27T17:05:40.379Z,17.97
2019-02-27T17:08:09.507Z,18.97
2019-02-27T17:10:40.312Z,19.90
2019-02-27T17:13:14.700Z,21.30
2019-02-27T17:15:40.747Z,21.57
2019-02-27T17:18:10.107Z,20.37
2019-02-27T17:20:39.501Z,20.43
2019-02-27T17:23:10.936Z,20.00
2019-02-27T17:25:39.894Z,19.67
2019-02-27T17:28:09.331Z,19.07
2019-02-27T17:30:38.717Z,18.87
2019-02-27T17:33:08.054Z,19.50
2019-02-27T17:35:37.485Z,16.20
2019-02-27T17:38:06.820Z,16.87
2019-02-27T17:40:37.624Z,15.87
2019-02-27T17:43:07.400Z,16.27
2019-02-27T17:45:36.760Z,16.60
2019-02-27T17:48:06.099Z,16.93
2019-02-27T17:50:35.453Z,16.60
2019-02-27T17:53:04.911Z,16.40
2019-02-27T17:55:34.307Z,15.70
2019-02-27T17:58:03.679Z,16.00
2019-02-27T18:00:34.904Z,18.23
2019-02-27T18:03:04.938Z,16.13
2019-02-27T18:05:35.184Z,16.17
2019-02-27T18:08:04.579Z,15.77
2019-02-27T18:10:37.285Z,15.60
2019-02-27T18:13:05.011Z,15.30
2019-02-27T18:15:34.827Z,16.60
2019-02-27T18:18:07.474Z,15.80
2019-02-27T18:20:35.264Z,15.67
2019-02-27T18:23:04.652Z,16.57
2019-02-27T18:25:33.983Z,15.70
2019-02-27T18:28:03.304Z,15.70
2019-02-27T18:30:32.712Z,16.90
2019-02-27T18:33:02.056Z,16.63
2019-02-27T18:35:31.422Z,15.80
2019-02-27T18:38:00.815Z,15.40
2019-02-27T18:40:30.199Z,15.83
2019-02-27T18:42:59.579Z,16.27
2019-02-27T18:45:29.654Z,17.37
2019-02-27T18:47:59.070Z,16.70
2019-02-27T18:50:28.480Z,16.57
2019-02-27T18:52:57.833Z,17.37
2019-02-27T18:55:30.545Z,17.63
2019-02-27T18:57:58.300Z,16.67
2019-02-27T19:00:29.039Z,16.17
2019-02-27T19:03:04.600Z,16.30
2019-02-27T19:05:34.074Z,17.87
2019-02-27T19:08:03.693Z,18.10
2019-02-27T19:10:33.207Z,18.80
2019-02-27T19:13:02.596Z,17.33
2019-02-27T19:15:32.016Z,16.33
2019-02-27T19:18:03.726Z,17.93
2019-02-27T19:20:38.300Z,16.90
2019-02-27T19:23:07.608Z,15.97
2019-02-27T19:25:36.955Z,16.67
2019-02-27T19:28:06.714Z,16.50
2019-02-27T19:30:38.699Z,15.63
2019-02-27T19:33:07.432Z,16.57
2019-02-27T19:35:36.760Z,17.40
2019-02-27T19:38:06.078Z,16.50
2019-02-27T19:40:35.851Z,15.30
2019-02-27T19:43:06.336Z,16.40
2019-02-27T19:45:36.500Z,16.87
2019-02-27T19:48:06.099Z,15.53
2019-02-27T19:50:35.447Z,17.17
2019-02-27T19:53:06.996Z,16.27
2019-02-27T19:55:35.939Z,15.70
2019-02-27T19:58:05.700Z,18.40
2019-02-27T20:00:35.683Z,17.40
2019-02-27T20:03:06.103Z,16.77
2019-02-27T20:05:36.394Z,16.93
2019-02-27T20:08:09.838Z,16.00
2019-02-27T20:10:38.228Z,17.37
2019-02-27T20:13:07.731Z,18.10
2019-02-27T20:15:37.364Z,18.83
2019-02-27T20:18:08.227Z,21.63
2019-02-27T20:20:41.002Z,19.67
2019-02-27T20:23:09.288Z,19.03
2019-02-27T20:25:43.249Z,19.43
2019-02-27T20:28:09.746Z,21.00
2019-02-27T20:30:39.148Z,28.37
2019-02-27T20:33:08.574Z,20.53
2019-02-27T20:35:38.135Z,20.53
2019-02-27T20:38:07.465Z,20.23
2019-02-27T20:40:36.783Z,21.93
2019-02-27T20:43:06.115Z,21.73
2019-02-27T20:45:35.510Z,19.13
2019-02-27T20:48:05.188Z,18.77
2019-02-27T20:50:37.622Z,18.73
2019-02-27T20:53:08.612Z,17.97
2019-02-27T20:55:38.001Z,17.90
2019-02-27T20:58:07.504Z,17.97
2019-02-27T21:00:37.291Z,18.30
2019-02-27T21:03:06.726Z,18.20
2019-02-27T21:05:36.143Z,17.73
2019-02-27T21:08:05.640Z,19.47
2019-02-27T21:10:35.435Z,18.77
2019-02-27T21:13:04.800Z,18.77
2019-02-27T21:15:34.120Z,17.83
2019-02-27T21:18:03.554Z,17.97
2019-02-27T21:20:33.307Z,19.63
2019-02-27T21:23:02.877Z,18.03
2019-02-27T21:25:32.263Z,19.17
2019-02-27T21:28:06.616Z,18.93
2019-02-27T21:30:32.787Z,17.83
2019-02-27T21:33:02.180Z,18.13
2019-02-27T21:35:31.600Z,18.47
2019-02-27T21:38:00.928Z,18.80
2019-02-27T21:40:30.250Z,17.43
2019-02-27T21:42:59.607Z,19.23
2019-02-27T21:45:29.094Z,20.57
2019-02-27T21:47:58.490Z,18.87
2019-02-27T21:50:28.490Z,19.43
2019-02-27T21:52:59.036Z,19.67
2019-02-27T21:55:28.392Z,18.87
2019-02-27T21:57:58.358Z,20.03
2019-02-27T22:00:29.952Z,20.00
2019-02-27T22:03:03.702Z,21.30
2019-02-27T22:05:30.788Z,21.13
2019-02-27T22:08:00.141Z,21.23
2019-02-27T22:10:29.504Z,21.20
2019-02-27T22:12:58.895Z,18.90
2019-02-27T22:15:29.264Z,21.23
2019-02-27T22:17:58.673Z,21.47
2019-02-27T22:20:28.070Z,21.80
2019-02-27T22:22:57.391Z,21.73
2019-02-27T22:25:30.179Z,21.63
2019-02-27T22:27:58.537Z,20.77
2019-02-27T22:30:28.009Z,22.03
2019-02-27T22:32:57.330Z,21.53
2019-02-27T22:35:26.735Z,23.00
2019-02-27T22:37:56.052Z,22.10
2019-02-27T22:40:25.384Z,22.33
2019-02-27T22:42:54.707Z,21.77
2019-02-27T22:45:24.064Z,21.50
2019-02-27T22:47:54.610Z,23.40
2019-02-27T22:50:24.235Z,23.97
2019-02-27T22:52:54.793Z,22.60
2019-02-27T22:55:24.769Z,23.47
2019-02-27T22:57:55.707Z,23.97
2019-02-27T23:00:51.151Z,24.27
2019-02-27T23:03:24.887Z,25.37
2019-02-27T23:05:54.242Z,24.87
2019-02-27T23:08:24.113Z,25.27
2019-02-27T23:10:53.661Z,24.67
2019-02-27T23:13:23.255Z,24.13
2019-02-27T23:15:58.181Z,25.73
2019-02-27T23:18:24.715Z,23.97
2019-02-27T23:20:55.386Z,25.10
2019-02-27T23:23:25.355Z,25.57
2019-02-27T23:25:54.738Z,26.00
2019-02-27T23:28:24.084Z,26.40
2019-02-27T23:30:53.475Z,28.20
2019-02-27T23:33:24.591Z,27.37
2019-02-27T23:35:53.864Z,27.83
2019-02-27T23:38:23.186Z,28.27
2019-02-27T23:40:52.727Z,29.17
2019-02-27T23:43:22.042Z,30.43
2019-02-27T23:45:51.363Z,30.97
2019-02-27T23:48:20.719Z,32.93
2019-02-27T23:50:50.056Z,32.90
2019-02-27T23:53:19.415Z,33.53
2019-02-27T23:55:48.728Z,33.03
2019-02-27T23:58:18.142Z,32.73
